Time;durP1;ratioP1;P1;durP2;ratioP2;P2;SDS_P1;SDS_P2;PMS_P1;PMS_P2;Temp;Humidity;BMP_temperature;BMP_pressure;BME280_temperature;BME280_humidity;BME280_pressure;Samples;Min_cycle;Max_cycle;Signal;HPM_P1;HPM_P2
2022/05/13 00:00:01;;;;;;;5.60;4.57;;;16.30;75.90;;;16.54;53.28;95274.91;5043155;28;20456;-54
2022/05/13 00:02:29;;;;;;;8.40;3.90;;;16.30;75.90;;;16.51;53.19;95264.63;5047823;28;20568;-54
2022/05/13 00:04:56;;;;;;;9.67;4.97;;;16.20;75.80;;;16.47;53.05;95269.44;5050975;28;20462;-55
2022/05/13 00:07:23;;;;;;;5.23;4.57;;;16.20;75.80;;;16.44;53.07;95275.09;5057140;28;20509;-54
2022/05/13 00:10:00;;;;;;;6.03;4.53;;;16.20;75.80;;;16.41;53.24;95276.25;5055459;28;20463;-55
2022/05/13 00:12:30;;;;;;;8.00;4.30;;;16.10;75.80;;;16.37;53.15;95285.53;5046917;28;20452;-54
2022/05/13 00:15:00;;;;;;;9.93;4.37;;;16.10;76.00;;;16.32;53.31;95277.22;5061932;28;20880;-55
2022/05/13 00:17:27;;;;;;;5.20;4.27;;;16.10;76.50;;;16.29;53.18;95282.88;5057716;28;20455;-55
2022/05/13 00:19:55;;;;;;;4.47;4.10;;;16.00;76.30;;;16.25;53.62;95281.53;5048180;28;20452;-55
2022/05/13 00:22:22;;;;;;;8.17;4.10;;;16.00;76.90;;;16.21;53.42;95278.38;5054432;28;20464;-54
2022/05/13 00:24:50;;;;;;;10.77;5.20;;;16.00;76.90;;;16.17;53.55;95269.09;5049506;28;20471;-55
2022/05/13 00:27:17;;;;;;;6.20;4.70;;;15.90;77.00;;;16.17;53.72;95268.25;5053947;28;20493;-55
2022/05/13 00:29:44;;;;;;;7.63;4.73;;;15.90;77.20;;;16.15;53.77;95271.06;5055796;28;21009;-56
2022/05/13 00:32:13;;;;;;;5.57;4.77;;;15.90;77.30;;;16.13;53.67;95273.91;5051239;28;20489;-53
2022/05/13 00:34:40;;;;;;;5.10;4.67;;;15.80;77.30;;;16.12;53.85;95269.56;5058134;28;20459;-55
2022/05/13 00:37:08;;;;;;;6.47;4.30;;;15.80;77.50;;;16.10;54.18;95266.25;5058664;28;20539;-53
2022/05/13 00:39:36;;;;;;;4.63;4.00;;;15.80;78.10;;;16.08;54.13;95270.06;5051825;28;20459;-56
2022/05/13 00:42:08;;;;;;;4.17;3.83;;;15.80;78.50;;;16.05;54.30;95265.94;5061182;28;20863;-53
2022/05/13 00:44:36;;;;;;;6.83;4.30;;;15.80;78.50;;;16.02;54.27;95265.41;5051558;28;20495;-55
2022/05/13 00:47:04;;;;;;;9.33;5.70;;;15.70;78.50;;;15.99;54.25;95271.03;5057362;28;20521;-53
2022/05/13 00:49:33;;;;;;;13.57;4.27;;;15.70;78.60;;;15.97;54.57;95283.66;5044547;28;20456;-54
2022/05/13 00:52:01;;;;;;;4.80;4.37;;;15.70;79.30;;;15.96;54.92;95282.84;5059022;28;20846;-55
2022/05/13 00:54:29;;;;;;;7.30;3.87;;;15.70;80.20;;;15.94;55.07;95283.00;5053201;28;20533;-53
2022/05/13 00:56:56;;;;;;;6.17;4.43;;;15.70;80.10;;;15.92;55.00;95282.31;5048123;28;20479;-55
2022/05/13 00:59:27;;;;;;;5.30;4.80;;;15.70;80.60;;;15.90;55.16;95280.81;5055316;28;20448;-56
2022/05/13 01:01:54;;;;;;;5.07;4.60;;;15.60;80.60;;;15.87;55.18;95278.50;5051630;28;20482;-55
2022/05/13 01:04:21;;;;;;;16.33;5.37;;;15.60;81.40;;;15.84;55.03;95284.13;5056830;28;20507;-55
2022/05/13 01:06:52;;;;;;;5.47;4.53;;;15.60;80.30;;;15.79;55.21;95283.78;5051743;28;20483;-53
2022/05/13 01:09:19;;;;;;;11.80;4.30;;;15.50;80.20;;;15.72;54.95;95280.91;5060813;28;20452;-55
2022/05/13 01:11:47;;;;;;;6.43;4.40;;;15.50;80.90;;;15.66;55.23;95278.91;5054645;28;20860;-54
2022/05/13 01:14:18;;;;;;;10.13;4.77;;;15.40;81.30;;;15.64;55.73;95273.75;5060418;28;20483;-55
2022/05/13 01:19:30;;;;;;;7.60;5.40;;;15.40;81.80;;;15.61;55.67;95274.09;5054102;28;20457;-54
2022/05/13 01:21:59;;;;;;;6.07;5.47;;;15.30;81.40;;;15.57;55.73;95268.28;5053855;28;20991;-54
2022/05/13 01:24:26;;;;;;;5.87;4.53;;;15.30;81.90;;;15.56;56.16;95273.75;5054238;28;20546;-54
2022/05/13 01:26:53;;;;;;;5.63;5.13;;;15.30;82.40;;;15.55;55.89;95266.75;5048056;28;20563;-57
2022/05/13 01:29:21;;;;;;;8.83;5.00;;;15.30;82.80;;;15.52;56.35;95267.94;5060340;28;20486;-56
2022/05/13 01:31:48;;;;;;;8.20;5.80;;;15.30;83.00;;;15.51;56.30;95273.41;5058259;28;20482;-55
2022/05/13 01:34:15;;;;;;;13.30;5.87;;;15.30;82.90;;;15.48;56.36;95285.16;5056309;28;20452;-54
2022/05/13 01:36:43;;;;;;;7.43;5.03;;;15.20;83.20;;;15.46;56.29;95286.28;5042528;28;20490;-53
2022/05/13 01:39:11;;;;;;;6.77;6.10;;;15.20;83.40;;;15.44;56.45;95281.16;5059360;28;20907;-54
2022/05/13 01:41:39;;;;;;;7.80;5.90;;;15.20;83.60;;;15.42;56.89;95264.56;5050072;28;20480;-54
2022/05/13 01:44:06;;;;;;;9.13;5.60;;;15.20;84.30;;;15.40;56.74;95263.91;5054459;28;20492;-54
2022/05/13 01:46:33;;;;;;;13.73;5.63;;;15.20;84.30;;;15.37;56.83;95258.94;5049789;28;21023;-55
2022/05/13 01:49:01;;;;;;;16.40;6.67;;;15.10;84.30;;;15.35;56.64;95267.03;5050793;28;20455;-53
2022/05/13 01:51:28;;;;;;;5.67;5.03;;;15.10;84.10;;;15.33;56.92;95255.75;5051489;28;20495;-55
2022/05/13 01:53:55;;;;;;;6.67;4.90;;;15.10;84.60;;;15.33;57.03;95265.53;5051379;28;20784;-53
2022/05/13 01:56:24;;;;;;;12.20;6.10;;;15.10;84.90;;;15.30;57.18;95256.06;5052971;28;20483;-53
2022/05/13 01:58:51;;;;;;;7.60;4.93;;;15.10;85.20;;;15.29;57.31;95258.88;5045806;28;20453;-56
2022/05/13 02:01:18;;;;;;;19.57;6.00;;;15.10;85.20;;;15.24;57.17;95256.72;5043907;28;20479;-54
2022/05/13 02:03:45;;;;;;;6.00;5.20;;;15.00;85.60;;;15.23;57.20;95265.66;5040165;28;20491;-53
2022/05/13 02:06:13;;;;;;;5.97;5.37;;;15.00;85.50;;;15.20;57.29;95261.50;5046376;28;20545;-53
2022/05/13 02:08:40;;;;;;;5.00;4.47;;;14.90;85.70;;;15.19;57.54;95265.13;5050520;28;20509;-54
2022/05/13 02:11:08;;;;;;;4.80;4.30;;;15.00;86.00;;;15.17;57.02;95267.13;5050285;28;20476;-54
2022/05/13 02:13:37;;;;;;;8.90;5.10;;;14.90;85.20;;;15.12;57.24;95263.28;5054822;28;20469;-53
2022/05/13 02:16:05;;;;;;;4.47;4.17;;;14.90;85.00;;;15.11;57.01;95269.59;5055298;28;21046;-53
2022/05/13 02:18:32;;;;;;;11.13;4.77;;;14.90;85.00;;;15.08;56.98;95270.72;5059598;28;20455;-56
2022/05/13 02:20:59;;;;;;;4.60;4.13;;;14.90;84.80;;;15.04;56.83;95272.00;5052714;28;20590;-55
2022/05/13 02:23:27;;;;;;;6.90;4.60;;;14.80;84.70;;;15.01;57.11;95273.19;5049196;28;20840;-54
2022/05/13 02:25:59;;;;;;;5.37;4.10;;;14.80;84.70;;;14.98;56.73;95268.19;5055033;28;21075;-54
2022/05/13 02:28:26;;;;;;;5.47;4.63;;;14.70;84.70;;;14.95;57.02;95267.66;5045763;28;21000;-56
2022/05/13 02:30:55;;;;;;;7.53;4.53;;;14.70;85.20;;;14.89;57.03;95271.78;5058169;28;20510;-55
2022/05/13 02:33:22;;;;;;;5.67;4.63;;;14.70;84.90;;;14.87;57.12;95276.38;5058933;28;20466;-53
2022/05/13 02:35:50;;;;;;;5.00;4.60;;;14.60;84.90;;;14.85;57.18;95279.19;5056460;28;20490;-54
2022/05/13 02:38:17;;;;;;;11.53;4.80;;;14.60;85.20;;;14.83;57.04;95267.09;5048405;28;20474;-55
2022/05/13 02:43:29;;;;;;;4.50;4.03;;;14.60;85.40;;;14.79;57.06;95271.03;5052544;28;20519;-55
2022/05/13 02:45:58;;;;;;;4.87;4.47;;;14.50;85.50;;;14.77;57.00;95286.28;5049396;28;20471;-54
2022/05/13 02:48:25;;;;;;;6.80;4.90;;;14.50;85.40;;;14.76;57.16;95289.88;5053941;28;20462;-54
2022/05/13 02:50:53;;;;;;;10.40;4.80;;;14.50;85.70;;;14.76;57.40;95287.25;5051916;28;20479;-54
2022/05/13 02:53:20;;;;;;;9.83;5.20;;;14.50;85.90;;;14.74;57.33;95286.56;5056780;28;20456;-53
2022/05/13 02:55:47;;;;;;;14.33;4.93;;;14.50;85.90;;;14.73;57.72;95284.91;5057313;28;20905;-55
2022/05/13 02:58:14;;;;;;;4.57;4.03;;;14.50;86.50;;;14.72;57.60;95283.22;5043886;28;20460;-56
2022/05/13 03:00:42;;;;;;;6.27;4.03;;;14.50;86.40;;;14.70;57.67;95276.28;5046961;28;20483;-57
2022/05/13 03:03:11;;;;;;;5.20;4.40;;;14.50;86.60;;;14.68;57.43;95288.84;5048075;28;20521;-55
2022/05/13 03:05:39;;;;;;;15.50;4.93;;;14.40;86.50;;;14.67;57.95;95289.84;5054172;28;20479;-56
2022/05/13 03:08:07;;;;;;;10.93;5.23;;;14.40;86.60;;;14.66;57.59;95277.56;5041036;28;20524;-55
2022/05/13 03:10:37;;;;;;;7.40;5.37;;;14.40;86.50;;;14.63;57.76;95283.19;5047187;28;20543;-54
2022/05/13 03:13:05;;;;;;;7.20;4.93;;;14.40;86.50;;;14.60;57.67;95283.50;5059129;28;20465;-55
2022/05/13 03:15:33;;;;;;;9.17;5.50;;;14.40;86.50;;;14.58;57.58;95288.09;5051971;28;20472;-53
2022/05/13 03:18:00;;;;;;;6.90;5.50;;;14.40;86.50;;;14.57;57.75;95290.88;5055580;28;20458;-55
2022/05/13 03:20:29;;;;;;;6.80;5.77;;;14.40;86.60;;;14.55;58.22;95298.13;5045228;28;20556;-54
2022/05/13 03:22:56;;;;;;;8.43;5.83;;;14.30;87.20;;;14.57;58.20;95291.72;5049171;28;20512;-53
2022/05/13 03:25:24;;;;;;;7.50;5.80;;;14.30;87.90;;;14.57;58.14;95290.88;5053636;28;20503;-55
2022/05/13 03:27:51;;;;;;;20.23;5.83;;;14.30;88.00;;;14.57;58.19;95296.19;5053922;28;20509;-57
2022/05/13 03:30:22;;;;;;;6.50;5.30;;;14.30;87.90;;;14.55;58.16;95292.84;5049004;28;20483;-55
2022/05/13 03:32:49;;;;;;;6.40;5.23;;;14.30;87.60;;;14.54;58.33;95297.31;5046908;28;20469;-55
2022/05/13 03:35:17;;;;;;;8.40;5.90;;;14.30;87.70;;;14.53;58.36;95293.84;5049798;28;20479;-55
2022/05/13 03:37:46;;;;;;;10.47;5.93;;;14.30;87.70;;;14.55;58.49;95298.97;5053106;28;20504;-55
2022/05/13 03:40:18;;;;;;;17.87;6.90;;;14.30;87.70;;;14.56;57.89;95295.34;5049325;28;20490;-54
2022/05/13 03:42:45;;;;;;;11.20;5.60;;;14.30;87.40;;;14.58;57.93;95295.19;5047981;28;20800;-54
2022/05/13 03:45:14;;;;;;;17.93;5.47;;;14.30;87.30;;;14.59;57.98;95300.31;5056828;28;20507;-56
2022/05/13 03:47:42;;;;;;;16.40;6.10;;;14.30;87.60;;;14.61;58.04;95303.69;5052347;28;20843;-53
2022/05/13 03:50:10;;;;;;;18.17;7.43;;;14.40;87.70;;;14.63;58.29;95314.94;5052261;28;20471;-55
2022/05/13 03:52:37;;;;;;;12.80;5.83;;;14.40;88.30;;;14.63;58.52;95314.94;5056036;28;20462;-56
2022/05/13 03:55:07;;;;;;;11.90;6.50;;;14.40;88.50;;;14.67;58.08;95312.81;5039666;28;21087;-55
2022/05/13 03:57:34;;;;;;;19.97;5.97;;;14.40;88.00;;;14.65;57.84;95320.09;5041040;28;20593;-55
2022/05/13 04:00:03;;;;;;;21.17;5.77;;;14.40;87.00;;;14.63;57.79;95322.06;5051285;28;20516;-56
2022/05/13 04:02:30;;;;;;;8.10;5.80;;;14.40;87.00;;;14.65;58.00;95325.38;5047499;28;20852;-57
2022/05/13 04:10:29;;;;;;;6.40;5.90;;;14.50;88.20;;;14.79;58.24;95335.41;5043830;28;20481;-55
2022/05/13 04:18:26;;;;;;;10.40;5.93;;;14.60;90.10;;;14.97;58.89;95331.91;5052113;28;20508;-55
2022/05/13 04:20:54;;;;;;;13.53;6.50;;;14.70;89.90;;;15.02;58.92;95335.75;5056902;28;20520;-54
2022/05/13 04:23:21;;;;;;;15.53;6.97;;;14.80;89.80;;;15.08;58.59;95326.34;5050303;28;20826;-57
2022/05/13 04:25:50;;;;;;;33.13;7.37;;;14.80;89.50;;;15.13;58.58;95333.84;5055681;28;20470;-56
2022/05/13 04:28:18;;;;;;;14.23;7.83;;;14.90;89.20;;;15.17;57.94;95335.19;5043143;28;20800;-56
2022/05/13 04:30:45;;;;;;;13.93;7.40;;;14.90;87.90;;;15.19;57.72;95330.56;5041664;28;21204;-54
2022/05/13 04:33:13;;;;;;;11.73;7.20;;;14.90;87.00;;;15.22;57.98;95333.72;5043109;28;20981;-54
2022/05/13 04:35:41;;;;;;;10.77;6.97;;;15.00;87.60;;;15.29;57.42;95339.25;5044312;28;20825;-60
2022/05/13 04:38:08;;;;;;;20.33;8.33;;;15.00;87.10;;;15.34;57.54;95336.94;5049587;28;20457;-58
2022/05/13 04:40:35;;;;;;;10.60;7.20;;;15.10;87.40;;;15.41;57.40;95343.28;5050827;28;20481;-54
2022/05/13 04:43:03;;;;;;;8.77;6.50;;;15.10;86.80;;;15.49;57.58;95344.28;5051417;28;20460;-61
2022/05/13 04:45:31;;;;;;;10.60;5.83;;;15.20;87.40;;;15.58;56.83;95343.34;5051908;28;20591;-59
2022/05/13 04:48:17;;;;;;;14.33;5.80;;;15.30;86.00;;;15.66;56.42;95346.03;5048753;28;20518;-60
2022/05/13 04:50:51;;;;;;;10.50;6.00;;;15.40;85.50;;;15.73;56.12;95348.88;5040998;28;21102;-54
2022/05/13 04:53:21;;;;;;;8.50;5.93;;;15.40;84.80;;;15.81;55.99;95348.94;5039614;28;20956;-56
2022/05/13 04:55:49;;;;;;;18.03;6.73;;;15.50;84.70;;;15.89;56.08;95351.59;5046779;28;20488;-54
2022/05/13 04:58:17;;;;;;;23.63;6.50;;;15.60;84.80;;;15.98;55.87;95341.84;5044824;28;20464;-57
2022/05/13 05:00:45;;;;;;;28.13;8.93;;;15.70;85.00;;;16.08;55.82;95347.03;5035539;28;20854;-56
2022/05/13 05:03:12;;;;;;;11.03;6.60;;;15.80;84.70;;;16.13;55.62;95342.91;5039589;28;20451;-56
2022/05/13 05:05:42;;;;;;;14.00;7.07;;;15.80;84.20;;;16.18;55.60;95341.59;5053465;28;20491;-57
2022/05/13 05:08:09;;;;;;;13.50;6.60;;;15.90;84.40;;;16.23;55.63;95337.44;5056033;28;20453;-55
2022/05/13 05:10:37;;;;;;;13.70;5.97;;;15.90;85.10;;;16.31;55.50;95350.75;5055397;28;20475;-56
2022/05/13 05:13:06;;;;;;;10.07;5.00;;;16.00;83.90;;;16.40;55.25;95359.53;5056295;28;20517;-56
2022/05/13 05:15:35;;;;;;;11.83;5.30;;;16.10;83.70;;;16.50;55.09;95359.41;5055818;28;20458;-56
2022/05/13 05:18:03;;;;;;;12.83;5.50;;;16.20;83.00;;;16.60;54.82;95353.91;5061126;28;20955;-56
2022/05/13 05:20:30;;;;;;;8.17;5.40;;;16.30;82.80;;;16.73;54.79;95356.91;5062897;28;20469;-55
2022/05/13 05:22:58;;;;;;;10.53;5.60;;;16.40;82.40;;;16.89;54.35;95360.59;5057620;28;20447;-56
2022/05/13 05:25:28;;;;;;;9.03;4.37;;;16.50;82.50;;;17.07;54.19;95361.25;5063397;28;20498;-55
2022/05/13 05:27:56;;;;;;;8.73;5.20;;;16.70;82.10;;;17.26;53.88;95354.75;5054534;28;20452;-55
2022/05/13 05:30:23;;;;;;;9.80;5.27;;;16.80;81.60;;;17.48;53.76;95357.69;5062012;28;20471;-56
2022/05/13 05:32:53;;;;;;;5.87;5.20;;;17.00;81.40;;;17.72;53.18;95357.59;5057197;28;20878;-57
2022/05/13 05:35:36;;;;;;;8.60;5.23;;;17.30;81.20;;;18.00;52.66;95364.31;5105926;27;20579;-55
2022/05/13 05:38:04;;;;;;;4.70;4.33;;;17.50;80.00;;;18.23;52.45;95361.72;5081827;28;20814;-58
2022/05/13 05:40:31;;;;;;;13.90;5.50;;;17.70;79.30;;;18.48;51.77;95369.56;5082488;28;20465;-59
2022/05/13 05:43:03;;;;;;;11.47;6.03;;;18.00;78.50;;;18.74;51.45;95362.03;5082471;28;20533;-59
2022/05/13 05:45:30;;;;;;;11.07;5.90;;;18.20;78.00;;;19.02;50.63;95366.03;5082311;28;20471;-55
2022/05/13 05:47:57;;;;;;;24.77;7.10;;;18.50;76.90;;;19.27;50.59;95359.47;5080667;28;20450;-55
2022/05/13 05:50:25;;;;;;;12.57;6.13;;;18.80;76.70;;;19.54;50.32;95359.84;5081504;28;21013;-57
2022/05/13 05:52:54;;;;;;;12.80;7.13;;;19.00;75.70;;;19.79;49.91;95356.94;5082506;28;21041;-53
2022/05/13 05:58:08;;;;;;;15.10;6.57;;;19.50;73.30;;;20.28;48.58;95353.63;5080148;28;20568;-54
2022/05/13 06:00:38;;;;;;;13.03;6.40;;;19.70;72.30;;;20.47;48.57;95351.38;5078271;28;20473;-56
2022/05/13 06:03:05;;;;;;;15.30;6.67;;;19.90;71.10;;;20.63;47.92;95344.94;5079493;28;20476;-56
2022/05/13 06:05:33;;;;;;;11.53;6.33;;;20.10;70.30;;;20.78;47.57;95340.41;5081029;28;20474;-56
2022/05/13 06:08:02;;;;;;;9.13;5.30;;;20.20;69.50;;;20.95;47.12;95340.97;5079835;28;20510;-55
2022/05/13 06:10:30;;;;;;;5.30;4.80;;;20.40;68.80;;;21.14;46.67;95350.97;5081068;28;20986;-56
2022/05/13 06:12:57;;;;;;;19.70;6.13;;;20.60;68.00;;;21.34;46.68;95338.78;5081488;28;20454;-56
2022/05/13 06:15:25;;;;;;;23.40;5.83;;;20.80;67.50;;;21.52;46.00;95338.28;5080572;28;20486;-57
2022/05/13 06:17:54;;;;;;;14.73;6.53;;;21.00;65.60;;;21.68;45.83;95335.31;5081522;28;20482;-56
2022/05/13 06:20:23;;;;;;;19.73;5.80;;;21.10;65.40;;;21.89;46.00;95338.91;5080365;28;20903;-55
2022/05/13 06:22:51;;;;;;;13.90;5.87;;;21.30;65.20;;;22.09;45.34;95337.16;5080563;28;20489;-58
2022/05/13 06:25:20;;;;;;;19.03;5.80;;;21.50;64.30;;;22.29;44.97;95323.84;5081773;28;20462;-57
2022/05/13 06:27:48;;;;;;;14.10;5.40;;;21.70;63.60;;;22.47;44.49;95328.66;5081862;28;20539;-56
2022/05/13 06:30:17;;;;;;;12.13;5.50;;;21.90;62.60;;;22.61;44.52;95326.81;5081270;28;20535;-54
2022/05/13 06:32:45;;;;;;;13.30;5.60;;;22.00;62.00;;;22.76;43.99;95334.69;5075674;28;20469;-55
2022/05/13 06:35:12;;;;;;;10.43;5.90;;;22.10;61.20;;;22.94;44.20;95339.44;5080588;28;20486;-56
2022/05/13 06:37:40;;;;;;;19.23;6.00;;;22.30;60.80;;;23.14;43.68;95326.06;5080489;28;20569;-57
2022/05/13 06:40:09;;;;;;;8.93;5.97;;;22.50;60.20;;;23.35;42.45;95329.56;5081353;28;21017;-56
2022/05/13 06:42:37;;;;;;;21.43;7.00;;;22.70;58.70;;;23.43;42.17;95321.28;5080089;28;20446;-56
2022/05/13 06:45:06;;;;;;;10.90;5.97;;;22.90;58.30;;;23.55;42.77;95335.72;5077377;28;20450;-58
2022/05/13 06:47:34;;;;;;;16.17;5.47;;;22.90;58.40;;;23.71;42.55;95333.63;5067321;28;20461;-55
2022/05/13 06:50:03;;;;;;;15.30;6.00;;;23.10;57.90;;;23.83;41.21;95321.19;5066490;28;20978;-57
2022/05/13 06:52:30;;;;;;;10.73;5.50;;;23.20;56.30;;;23.96;41.50;95326.53;5066883;28;20450;-57
2022/05/13 06:54:57;;;;;;;5.80;5.23;;;23.40;56.80;;;24.11;41.24;95325.47;5067089;28;20491;-54
2022/05/13 06:57:25;;;;;;;18.03;5.70;;;23.50;56.20;;;24.28;41.65;95318.56;5066050;28;20535;-57
2022/05/13 06:59:54;;;;;;;18.13;6.20;;;23.70;56.10;;;24.46;41.36;95314.31;5065442;28;20790;-53
2022/05/13 07:02:23;;;;;;;16.03;5.30;;;23.80;55.30;;;24.66;40.81;95314.22;5065838;28;20975;-56
2022/05/13 07:04:50;;;;;;;11.17;5.53;;;24.00;56.00;;;24.81;41.48;95317.44;5067147;28;20508;-57
2022/05/13 07:07:17;;;;;;;13.60;6.20;;;24.20;55.80;;;24.91;41.96;95313.44;5067243;28;20447;-57
2022/05/13 07:09:45;;;;;;;28.07;6.53;;;24.30;56.90;;;25.00;41.68;95310.28;5066137;28;20803;-57
2022/05/13 07:12:13;;;;;;;6.83;5.37;;;24.40;56.40;;;25.04;40.75;95307.97;5065253;28;20451;-58
2022/05/13 07:14:40;;;;;;;14.77;5.73;;;24.40;55.60;;;25.02;40.98;95310.88;5065087;28;20566;-56
2022/05/13 07:17:09;;;;;;;9.57;4.23;;;24.40;55.70;;;25.03;41.71;95307.13;5062323;28;20558;-55
2022/05/13 07:19:36;;;;;;;18.13;5.50;;;24.50;56.10;;;25.08;41.95;95306.47;5065509;28;20502;-58
2022/05/13 07:22:05;;;;;;;8.97;4.77;;;24.50;56.50;;;25.17;41.38;95309.72;5065288;28;21002;-59
2022/05/13 07:24:33;;;;;;;6.57;4.53;;;24.50;55.80;;;25.23;39.96;95306.13;5064013;28;20451;-60
2022/05/13 07:27:00;;;;;;;17.23;8.00;;;24.70;53.90;;;25.27;40.72;95298.44;5065640;28;20474;-59
2022/05/13 07:29:28;;;;;;;15.23;6.47;;;24.70;54.80;;;25.33;40.70;95303.81;5065647;28;20458;-57
2022/05/13 07:31:55;;;;;;;19.77;8.70;;;24.70;55.20;;;25.41;40.13;95300.81;5066000;28;21019;-57
2022/05/13 07:34:24;;;;;;;15.33;5.73;;;24.80;52.90;;;25.48;39.80;95302.63;5066968;28;21083;-59
2022/05/13 07:36:53;;;;;;;15.73;6.17;;;24.90;54.20;;;25.57;40.43;95299.41;5066050;28;20471;-57
2022/05/13 07:42:07;;;;;;;15.83;5.53;;;25.10;54.60;;;25.87;39.93;95292.44;5065494;28;20994;-56
2022/05/13 07:44:34;;;;;;;8.00;4.40;;;25.30;53.90;;;26.01;40.31;95285.91;5067015;28;20451;-57
2022/05/13 07:47:02;;;;;;;11.50;6.00;;;25.40;53.60;;;26.18;40.19;95277.16;5064192;28;20475;-57
2022/05/13 07:49:31;;;;;;;16.43;4.80;;;25.50;53.50;;;26.34;39.61;95281.13;5066588;28;20505;-56
2022/05/13 07:51:58;;;;;;;9.73;4.10;;;25.70;53.60;;;26.41;38.44;95277.25;5067154;28;20822;-53
2022/05/13 07:54:25;;;;;;;6.17;4.53;;;25.80;50.90;;;26.49;38.41;95273.41;5066477;28;20486;-55
2022/05/13 07:56:52;;;;;;;11.40;4.63;;;25.90;51.40;;;26.61;38.63;95276.97;5064357;28;20470;-55
2022/05/13 07:59:20;;;;;;;9.33;4.07;;;26.00;51.40;;;26.76;37.91;95271.19;5063480;28;20446;-56
2022/05/13 08:01:48;;;;;;;7.73;3.87;;;26.10;50.70;;;26.93;37.38;95275.91;5065052;28;20497;-56
2022/05/13 08:04:15;;;;;;;11.73;4.10;;;26.30;49.70;;;27.06;37.59;95272.97;5066389;28;20894;-58
2022/05/13 08:06:45;;;;;;;17.47;14.63;;;26.50;50.30;;;27.25;37.37;95267.47;5066214;28;20527;-57
2022/05/13 08:09:12;;;;;;;13.70;8.60;;;26.60;49.90;;;27.46;37.36;95266.09;5065364;28;20967;-57
2022/05/13 08:11:40;;;;;;;5.20;4.70;;;26.80;49.60;;;27.66;36.94;95263.84;5064619;28;20474;-54
2022/05/13 08:14:07;;;;;;;5.93;3.83;;;27.00;49.10;;;27.88;36.50;95274.00;5064102;28;20516;-56
2022/05/13 08:16:35;;;;;;;9.33;5.17;;;27.20;49.00;;;28.02;36.24;95264.59;5064443;28;20767;-57
2022/05/13 08:19:03;;;;;;;8.37;4.50;;;27.40;48.70;;;28.05;36.07;95260.59;5064469;28;20856;-55
2022/05/13 08:21:30;;;;;;;7.00;4.70;;;27.50;48.10;;;28.20;36.02;95260.91;5064026;28;20759;-59
2022/05/13 08:23:59;;;;;;;10.23;4.87;;;27.60;48.00;;;28.24;35.45;95253.94;5064130;28;20523;-54
2022/05/13 08:26:26;;;;;;;12.10;5.17;;;27.60;47.50;;;28.23;35.93;95255.00;5065359;28;20558;-58
2022/05/13 08:28:54;;;;;;;15.60;5.27;;;27.60;47.30;;;28.30;35.62;95254.03;5066115;28;20978;-56
2022/05/13 08:31:21;;;;;;;11.63;4.57;;;27.70;47.80;;;28.49;36.14;95246.53;5064282;28;20466;-58
2022/05/13 08:33:49;;;;;;;4.87;4.47;;;27.90;47.70;;;28.70;35.64;95248.56;5064635;28;20474;-59
2022/05/13 08:36:16;;;;;;;6.00;4.63;;;28.00;47.80;;;28.87;35.70;95245.06;5064415;28;21036;-54
2022/05/13 08:38:44;;;;;;;5.83;5.03;;;28.20;47.20;;;28.93;35.65;95249.50;5065831;28;20824;-57
2022/05/13 08:41:26;;;;;;;10.03;4.43;;;28.30;47.60;;;29.05;34.90;95249.38;5064211;28;20501;-59
2022/05/13 08:43:56;;;;;;;11.23;4.43;;;28.40;46.30;;;29.10;34.18;95241.34;5066076;28;20439;-59
2022/05/13 08:46:34;;;;;;;13.87;5.13;;;28.50;46.10;;;29.22;34.07;95236.69;5065984;28;20481;-58
2022/05/13 08:49:07;;;;;;;4.70;3.83;;;28.60;45.70;;;29.36;33.47;95234.47;5064586;28;20442;-57
2022/05/13 08:51:48;;;;;;;7.17;4.20;;;28.70;44.70;;;29.52;33.45;95229.25;5062888;28;20476;-59
2022/05/13 08:54:17;;;;;;;4.60;4.17;;;28.80;45.20;;;29.60;34.29;95224.19;5064795;28;20456;-60
2022/05/13 08:56:50;;;;;;;4.50;4.10;;;29.00;45.20;;;29.76;34.06;95222.53;5064896;28;20474;-64
2022/05/13 08:59:20;;;;;;;7.07;4.20;;;29.10;44.60;;;29.94;33.23;95220.59;5065078;28;20862;-57
2022/05/13 09:01:49;;;;;;;6.13;4.80;;;29.30;44.70;;;30.15;32.88;95221.66;5061168;28;20466;-56
2022/05/13 09:04:26;;;;;;;10.10;4.00;;;29.50;44.10;;;30.32;32.62;95219.66;5064309;28;20819;-55
2022/05/13 09:06:55;;;;;;;12.90;4.20;;;29.70;43.90;;;30.47;33.18;95221.72;5065224;28;20474;-57
2022/05/13 09:09:23;;;;;;;9.47;4.17;;;29.80;43.20;;;30.58;32.67;95222.63;5064871;28;21057;-56
2022/05/13 09:11:55;;;;;;;6.00;3.87;;;29.90;43.10;;;30.69;31.83;95213.50;5065002;28;20463;-54
2022/05/13 09:14:31;;;;;;;6.80;3.87;;;30.00;42.30;;;30.80;32.45;95213.59;5063145;28;20533;-56
2022/05/13 09:17:30;;;;;;;5.03;4.40;;;30.10;42.40;;;30.85;30.73;95206.31;5063957;28;20473;-55
2022/05/13 09:20:00;;;;;;;6.57;4.10;;;30.20;41.40;;;30.84;32.12;95207.38;5065106;28;20676;-56
2022/05/13 09:22:35;;;;;;;10.47;5.67;;;30.30;41.90;;;30.86;31.24;95197.09;5061473;28;20671;-58
2022/05/13 09:25:02;;;;;;;6.43;5.73;;;30.30;41.90;;;30.91;32.01;95194.41;5063226;28;20758;-56
2022/05/13 09:27:47;;;;;;;8.00;4.67;;;30.30;41.60;;;30.97;30.97;95191.72;5064446;28;20200;-56
2022/05/13 09:30:21;;;;;;;7.17;4.97;;;30.40;41.10;;;31.05;31.98;95189.38;5062650;28;20692;-58
2022/05/13 09:32:49;;;;;;;9.27;4.10;;;30.40;41.50;;;31.12;32.24;95183.69;5064077;28;20211;-56
2022/05/13 09:35:31;;;;;;;6.50;4.43;;;30.50;41.70;;;31.22;31.73;95177.53;5064402;28;20236;-58
2022/05/13 09:37:58;;;;;;;5.53;4.43;;;30.60;41.70;;;31.30;31.81;95177.03;5063236;28;20660;-56
2022/05/13 09:40:27;;;;;;;5.73;4.37;;;30.70;41.70;;;31.36;31.27;95167.00;5064688;28;20224;-59
2022/05/13 09:42:58;;;;;;;6.70;4.87;;;30.70;41.30;;;31.46;30.52;95167.03;5064287;28;20203;-57
2022/05/13 09:45:28;;;;;;;9.20;4.30;;;30.80;40.60;;;31.50;31.39;95161.91;5064501;28;20244;-58
2022/05/13 09:48:13;;;;;;;6.90;4.00;;;30.80;40.40;;;31.56;29.88;95161.69;5064280;28;20209;-56
2022/05/13 09:50:42;;;;;;;14.33;4.50;;;30.90;39.90;;;31.59;29.86;95158.44;5062374;28;20228;-59
2022/05/13 09:53:29;;;;;;;4.23;3.93;;;30.90;39.10;;;31.61;30.08;95147.28;5064461;28;20200;-58
2022/05/13 09:55:57;;;;;;;4.23;3.83;;;31.00;39.90;;;31.62;30.11;95144.31;5062552;28;20255;-58
2022/05/13 09:58:27;;;;;;;50.33;5.70;;;31.00;39.40;;;31.69;29.99;95144.06;5062572;28;20260;-58
2022/05/13 10:00:57;;;;;;;4.43;4.03;;;31.10;39.70;;;31.69;30.08;95140.53;5062109;28;20248;-59
2022/05/13 10:03:26;;;;;;;4.20;3.70;;;31.10;39.50;;;31.73;30.11;95138.88;5060855;28;20215;-56
2022/05/13 10:05:55;;;;;;;11.50;3.23;;;31.10;38.40;;;31.75;29.09;95142.19;5063681;28;20381;-59
2022/05/13 10:08:26;;;;;;;4.93;3.53;;;31.10;38.40;;;31.75;29.54;95129.38;5064221;28;20204;-56
2022/05/13 10:14:01;;;;;;;3.33;3.03;;;31.10;38.60;;;31.72;28.50;95124.47;5063741;28;20203;-59
2022/05/13 10:16:38;;;;;;;9.37;3.90;;;31.10;37.30;;;31.68;29.35;95117.13;5062678;28;20235;-57
2022/05/13 10:19:10;;;;;;;4.80;3.50;;;31.10;38.20;;;31.66;28.98;95122.81;5064566;28;20208;-56
2022/05/13 10:21:42;;;;;;;3.67;3.40;;;31.10;37.70;;;31.61;29.21;95126.34;5066888;28;20234;-59
2022/05/13 10:24:24;;;;;;;16.13;4.10;;;31.00;37.50;;;31.61;28.60;95111.94;5067749;28;20226;-56
2022/05/13 10:26:51;;;;;;;4.97;3.50;;;31.00;37.60;;;31.59;27.74;95103.25;5063061;28;20231;-57
2022/05/13 10:29:24;;;;;;;8.90;4.50;;;31.00;36.30;;;31.56;28.06;95106.50;5067240;28;20484;-55
2022/05/13 10:31:51;;;;;;;4.90;3.23;;;30.90;36.50;;;31.49;28.78;95108.59;5066759;28;20248;-57
2022/05/13 10:34:25;;;;;;;3.17;2.87;;;30.90;37.20;;;31.40;28.50;95102.84;5067871;28;20200;-60
2022/05/13 10:36:56;;;;;;;3.93;3.20;;;30.80;36.80;;;31.30;28.36;95106.34;5065378;28;20670;-58
2022/05/13 10:39:26;;;;;;;4.50;3.30;;;30.70;37.10;;;31.24;28.70;95104.69;5061883;28;20219;-58
2022/05/13 10:41:58;;;;;;;9.00;3.57;;;30.60;37.00;;;31.18;28.89;95106.56;5067060;28;20254;-59
2022/05/13 10:44:37;;;;;;;3.67;3.13;;;30.50;37.30;;;31.20;28.89;95104.41;5062888;28;20199;-55
2022/05/13 10:47:09;;;;;;;6.90;3.60;;;30.60;37.20;;;31.24;28.52;95096.53;5063173;28;20754;-59